createdAt,value
2019-02-03T00:03:09.338Z,67.60
2019-02-03T00:08:13.142Z,64.87
2019-02-03T00:13:16.866Z,75.87
2019-02-03T00:18:20.696Z,67.77
2019-02-03T00:23:24.513Z,86.13
2019-02-03T00:28:28.269Z,94.83
2019-02-03T00:33:32.069Z,86.03
2019-02-03T00:38:35.941Z,85.67
2019-02-03T00:43:39.836Z,82.03
2019-02-03T00:48:43.570Z,78.53
2019-02-03T00:53:47.337Z,71.40
2019-02-03T00:58:51.131Z,71.47
2019-02-03T01:03:55.319Z,66.87
2019-02-03T01:08:59.216Z,66.80
2019-02-03T01:14:02.989Z,61.40
2019-02-03T01:19:06.669Z,62.40
2019-02-03T01:24:10.515Z,65.90
2019-02-03T01:29:14.297Z,62.03
2019-02-03T01:34:17.962Z,57.77
2019-02-03T01:39:22.130Z,59.57
2019-02-03T01:44:25.896Z,54.03
2019-02-03T01:49:29.574Z,49.47
2019-02-03T01:54:33.540Z,45.40
2019-02-03T01:59:37.446Z,43.00
2019-02-03T02:04:41.126Z,37.77
2019-02-03T02:09:44.886Z,35.30
2019-02-03T02:14:48.609Z,30.90
2019-02-03T02:19:53.442Z,31.10
2019-02-03T02:24:57.528Z,31.47
2019-02-03T02:30:01.468Z,28.20
2019-02-03T02:35:05.572Z,28.07
2019-02-03T02:40:13.499Z,28.90
2019-02-03T02:45:17.600Z,28.63
2019-02-03T02:50:26.772Z,29.30
2019-02-03T02:55:30.539Z,23.23
2019-02-03T03:00:34.336Z,26.63
2019-02-03T03:05:38.165Z,28.07
2019-02-03T03:10:42.287Z,23.57
2019-02-03T03:15:45.964Z,23.50
2019-02-03T03:20:49.691Z,24.30
2019-02-03T03:25:53.434Z,25.13
2019-02-03T03:30:57.101Z,20.20
2019-02-03T03:36:00.800Z,23.50
2019-02-03T03:41:04.577Z,21.27
2019-02-03T03:46:08.315Z,22.70
2019-02-03T03:51:12.039Z,20.63
2019-02-03T03:56:16.394Z,22.13
2019-02-03T04:01:20.100Z,22.83
2019-02-03T04:06:23.844Z,22.50
2019-02-03T04:11:27.645Z,21.63
2019-02-03T04:16:31.389Z,21.77
2019-02-03T04:21:35.079Z,24.13
2019-02-03T04:26:38.850Z,23.63
2019-02-03T04:31:42.794Z,26.87
2019-02-03T04:36:46.829Z,22.60
2019-02-03T04:41:50.528Z,20.47
2019-02-03T04:46:54.267Z,23.80
2019-02-03T04:51:57.953Z,23.40
2019-02-03T04:57:01.711Z,23.73
2019-02-03T05:02:05.472Z,23.77
2019-02-03T05:07:09.216Z,23.77
2019-02-03T05:12:15.882Z,26.73
2019-02-03T05:17:20.053Z,23.00
2019-02-03T05:22:23.839Z,23.20
2019-02-03T05:27:27.731Z,27.53
2019-02-03T05:32:31.450Z,26.73
2019-02-03T05:37:35.229Z,27.10
2019-02-03T05:42:38.982Z,27.40
2019-02-03T05:47:42.672Z,33.30
2019-02-03T05:52:46.797Z,31.07
2019-02-03T05:57:50.640Z,24.67
2019-02-03T06:02:54.525Z,32.13
2019-02-03T06:07:58.314Z,27.67
2019-02-03T06:13:02.113Z,26.10
2019-02-03T06:18:05.853Z,25.43
2019-02-03T06:23:10.074Z,29.47
2019-02-03T06:28:13.805Z,25.07
2019-02-03T06:33:17.543Z,27.23
2019-02-03T06:38:21.742Z,26.37
2019-02-03T06:43:25.794Z,26.60
2019-02-03T06:48:29.641Z,26.13
2019-02-03T06:53:33.616Z,25.60
2019-02-03T06:58:37.360Z,21.93
2019-02-03T07:03:41.112Z,25.50
2019-02-03T07:08:44.892Z,23.17
2019-02-03T07:13:48.981Z,23.23
2019-02-03T07:18:52.744Z,25.00
2019-02-03T07:23:56.737Z,26.17
2019-02-03T07:29:00.526Z,24.23
2019-02-03T07:34:04.712Z,26.77
2019-02-03T07:39:09.632Z,27.30
2019-02-03T07:44:13.950Z,26.50
2019-02-03T07:49:17.632Z,27.03
2019-02-03T07:54:21.437Z,24.63
2019-02-03T07:59:25.630Z,25.30
2019-02-03T08:04:29.553Z,25.53
2019-02-03T08:09:33.351Z,25.03
2019-02-03T08:14:37.499Z,21.60
2019-02-03T08:19:41.268Z,25.60
2019-02-03T08:24:45.078Z,34.23
2019-02-03T08:29:48.856Z,36.57
2019-02-03T08:34:52.689Z,32.93
2019-02-03T08:39:56.727Z,28.23
2019-02-03T08:45:00.741Z,31.80
2019-02-03T08:50:05.787Z,30.40
2019-02-03T08:55:09.999Z,31.23
2019-02-03T09:00:19.126Z,34.93
2019-02-03T09:05:22.900Z,36.27
2019-02-03T09:10:26.831Z,35.40
2019-02-03T09:15:30.625Z,45.30
2019-02-03T09:20:37.433Z,39.83
2019-02-03T09:25:41.698Z,40.33
2019-02-03T09:30:45.730Z,46.90
2019-02-03T09:35:50.045Z,47.67
2019-02-03T09:41:00.329Z,48.03
2019-02-03T09:45:59.659Z,42.90
2019-02-03T09:51:03.536Z,42.90
2019-02-03T09:56:07.741Z,42.33
2019-02-03T10:01:11.557Z,41.80
2019-02-03T10:06:20.641Z,40.43
2019-02-03T10:11:23.054Z,41.53
2019-02-03T10:16:26.332Z,42.90
2019-02-03T10:21:30.175Z,39.83
2019-02-03T10:26:34.191Z,39.30
2019-02-03T10:31:37.921Z,33.17
2019-02-03T10:36:41.609Z,34.10
2019-02-03T10:41:45.682Z,30.00
2019-02-03T10:46:49.473Z,27.40
2019-02-03T10:51:53.357Z,28.80
2019-02-03T10:56:57.107Z,26.47
2019-02-03T11:02:01.208Z,31.77
2019-02-03T11:07:05.479Z,28.93
2019-02-03T11:12:09.208Z,33.20
2019-02-03T11:17:13.131Z,37.70
2019-02-03T11:22:16.927Z,43.87
2019-02-03T11:27:20.774Z,44.63
2019-02-03T11:32:24.940Z,38.33
2019-02-03T11:37:29.011Z,39.00
2019-02-03T11:42:32.819Z,38.33
2019-02-03T11:47:36.610Z,39.10
2019-02-03T11:52:40.347Z,34.17
2019-02-03T11:57:44.490Z,37.33
2019-02-03T12:02:48.321Z,34.03
2019-02-03T12:07:52.507Z,33.53
2019-02-03T12:12:56.319Z,27.00
2019-02-03T12:18:00.179Z,29.07
2019-02-03T12:23:03.900Z,23.60
2019-02-03T12:28:07.592Z,27.77
2019-02-03T12:33:11.696Z,25.13
2019-02-03T12:38:15.691Z,25.23
2019-02-03T12:43:19.515Z,21.47
2019-02-03T12:48:24.145Z,21.13
2019-02-03T12:53:28.151Z,22.37
2019-02-03T12:58:31.908Z,19.23
2019-02-03T13:03:35.724Z,21.20
2019-02-03T13:08:39.474Z,23.93
2019-02-03T13:13:43.385Z,24.20
2019-02-03T13:18:48.492Z,25.40
2019-02-03T13:23:53.274Z,20.07
2019-02-03T13:28:57.105Z,21.43
2019-02-03T13:34:00.998Z,25.50
2019-02-03T13:39:08.320Z,28.03
2019-02-03T13:44:12.220Z,30.50
2019-02-03T13:49:16.090Z,30.87
2019-02-03T13:54:20.104Z,29.50
2019-02-03T13:59:23.957Z,27.17
2019-02-03T14:04:27.779Z,21.73
2019-02-03T14:09:31.676Z,25.03
2019-02-03T14:14:35.778Z,25.33
2019-02-03T14:19:39.677Z,25.93
2019-02-03T14:24:43.869Z,24.83
2019-02-03T14:29:47.693Z,23.07
2019-02-03T14:34:51.449Z,23.77
2019-02-03T14:39:55.137Z,23.90
2019-02-03T14:44:58.853Z,21.50
2019-02-03T14:50:02.638Z,24.17
2019-02-03T14:55:08.838Z,24.10
2019-02-03T15:00:21.780Z,20.77
2019-02-03T15:05:25.657Z,20.80
2019-02-03T15:10:30.295Z,19.90
2019-02-03T15:15:36.407Z,22.70
2019-02-03T15:20:39.960Z,23.30
2019-02-03T15:25:43.924Z,22.20
2019-02-03T15:30:48.769Z,25.37
2019-02-03T15:35:52.627Z,34.07
2019-02-03T15:40:56.370Z,36.50
2019-02-03T15:46:00.104Z,43.37
2019-02-03T15:51:03.910Z,45.73
2019-02-03T15:56:07.696Z,49.40
2019-02-03T16:01:11.543Z,47.67
2019-02-03T16:06:18.823Z,50.63
2019-02-03T16:11:23.002Z,43.90
2019-02-03T16:16:27.263Z,41.97
2019-02-03T16:21:31.608Z,39.13
2019-02-03T16:26:35.569Z,37.37
2019-02-03T16:31:39.648Z,37.47
2019-02-03T16:36:44.380Z,40.97
2019-02-03T16:41:48.326Z,39.90
2019-02-03T16:46:52.104Z,38.50
2019-02-03T16:51:55.928Z,34.00
2019-02-03T16:56:59.834Z,31.83
2019-02-03T17:02:03.966Z,29.73
2019-02-03T17:07:07.891Z,27.87
2019-02-03T17:12:14.104Z,28.07
2019-02-03T17:17:19.417Z,27.60
2019-02-03T17:22:23.278Z,25.80
2019-02-03T17:27:27.099Z,30.20
2019-02-03T17:32:30.860Z,36.23
2019-02-03T17:37:34.583Z,36.90
2019-02-03T17:42:38.453Z,39.77
2019-02-03T17:47:42.612Z,33.00
2019-02-03T17:52:47.530Z,35.10
2019-02-03T17:57:51.385Z,30.90
2019-02-03T18:02:55.487Z,35.77
2019-02-03T18:07:59.750Z,38.93
2019-02-03T18:13:22.893Z,37.50
2019-02-03T18:18:26.912Z,36.63
2019-02-03T18:23:30.855Z,36.70
2019-02-03T18:28:34.788Z,27.10
2019-02-03T18:33:38.660Z,33.50
2019-02-03T18:38:42.535Z,35.63
2019-02-03T18:43:46.392Z,34.70
2019-02-03T18:48:50.752Z,34.70
2019-02-03T18:53:54.647Z,31.57
2019-02-03T18:58:58.499Z,30.90
2019-02-03T19:04:02.298Z,35.70
2019-02-03T19:09:07.987Z,36.50
2019-02-03T19:14:11.739Z,33.47
2019-02-03T19:19:15.550Z,33.90
2019-02-03T19:24:19.475Z,35.17
2019-02-03T19:29:23.259Z,36.80
2019-02-03T19:34:27.123Z,34.83
2019-02-03T19:39:30.851Z,32.53
2019-02-03T19:44:35.058Z,27.00
2019-02-03T19:49:47.559Z,25.13
2019-02-03T19:54:47.902Z,22.20
2019-02-03T19:59:51.909Z,21.50
2019-02-03T20:04:55.929Z,23.13
2019-02-03T20:09:59.775Z,19.70
2019-02-03T20:15:09.998Z,19.13
2019-02-03T20:20:13.763Z,19.03
2019-02-03T20:25:18.782Z,26.80
2019-02-03T20:30:37.421Z,23.27
2019-02-03T20:35:29.534Z,22.47
2019-02-03T20:40:35.479Z,25.80
2019-02-03T20:45:48.908Z,24.53
2019-02-03T20:50:45.085Z,25.17
2019-02-03T20:55:48.901Z,24.50
2019-02-03T21:00:52.956Z,24.43
2019-02-03T21:05:57.455Z,20.13
2019-02-03T21:11:01.720Z,24.60
2019-02-03T21:16:05.549Z,17.17
2019-02-03T21:21:09.403Z,17.33
2019-02-03T21:26:16.356Z,15.63
2019-02-03T21:31:18.756Z,20.13
2019-02-03T21:36:22.830Z,21.30
2019-02-03T21:41:26.625Z,23.23
2019-02-03T21:46:30.750Z,24.87
2019-02-03T21:51:36.269Z,28.10
2019-02-03T21:56:40.086Z,27.07
2019-02-03T22:01:43.862Z,21.73
2019-02-03T22:06:47.637Z,24.93
2019-02-03T22:11:51.876Z,21.00
2019-02-03T22:16:56.200Z,21.10
2019-02-03T22:22:02.124Z,19.70
2019-02-03T22:27:06.333Z,19.33
2019-02-03T22:32:13.196Z,15.57
2019-02-03T22:37:17.571Z,16.83
2019-02-03T22:42:21.769Z,13.17
2019-02-03T22:47:25.658Z,14.30
2019-02-03T22:52:31.362Z,12.60
2019-02-03T22:57:35.842Z,11.93
2019-02-03T23:02:39.658Z,11.63
2019-02-03T23:07:45.068Z,10.57
2019-02-03T23:12:50.016Z,12.10
2019-02-03T23:17:54.426Z,9.17
2019-02-03T23:22:58.643Z,9.40
2019-02-03T23:28:02.384Z,8.33
2019-02-03T23:33:06.238Z,8.30
2019-02-03T23:38:14.142Z,9.13
2019-02-03T23:43:18.017Z,9.73
2019-02-03T23:48:22.257Z,9.20
2019-02-03T23:53:25.983Z,7.20
2019-02-03T23:58:30.033Z,8.03
